createdAt,value
2018-02-25T00:01:37.905Z,93912.19
2018-02-25T00:04:04.497Z,93899.30
2018-02-25T00:06:31.077Z,93896.61
2018-02-25T00:08:58.471Z,93900.03
2018-02-25T00:11:25.026Z,93899.34
2018-02-25T00:13:51.578Z,93895.19
2018-02-25T00:16:18.954Z,93883.94
2018-02-25T00:18:46.263Z,93897.27
2018-02-25T00:21:12.846Z,93895.55
2018-02-25T00:23:39.410Z,93883.94
2018-02-25T00:26:06.746Z,93891.75
2018-02-25T00:28:34.097Z,93895.67
2018-02-25T00:31:00.715Z,93900.52
2018-02-25T00:33:27.316Z,93895.78
2018-02-25T00:35:53.886Z,93891.41
2018-02-25T00:38:20.599Z,93892.48
2018-02-25T00:40:47.138Z,93889.61
2018-02-25T00:43:13.709Z,93896.09
2018-02-25T00:45:40.567Z,93879.87
2018-02-25T00:48:07.193Z,93870.78
2018-02-25T00:50:33.733Z,93875.68
2018-02-25T00:53:01.042Z,93877.81
2018-02-25T00:55:27.610Z,93869.66
2018-02-25T00:57:54.166Z,93874.93
2018-02-25T01:00:21.629Z,93881.32
2018-02-25T01:02:48.949Z,93884.69
2018-02-25T01:05:15.566Z,93891.19
2018-02-25T01:07:42.147Z,93882.80
2018-02-25T01:10:08.770Z,93893.74
2018-02-25T01:12:35.311Z,93895.96
2018-02-25T01:15:02.759Z,93890.45
2018-02-25T01:17:29.285Z,93892.39
2018-02-25T01:19:56.594Z,93890.25
2018-02-25T01:22:23.150Z,93890.27
2018-02-25T01:24:49.959Z,93894.84
2018-02-25T01:27:17.231Z,93899.09
2018-02-25T01:29:43.813Z,93884.73
2018-02-25T01:32:11.133Z,93894.91
2018-02-25T01:34:37.955Z,93905.47
2018-02-25T01:37:05.146Z,93898.06
2018-02-25T01:39:31.720Z,93907.28
2018-02-25T01:41:59.041Z,93904.81
2018-02-25T01:44:25.589Z,93905.16
2018-02-25T01:46:52.195Z,93899.91
2018-02-25T01:49:18.823Z,93904.16
2018-02-25T01:51:45.458Z,93895.42
2018-02-25T01:54:12.033Z,93903.33
2018-02-25T01:56:38.590Z,93890.38
2018-02-25T01:59:05.894Z,93902.77
2018-02-25T02:01:32.490Z,93904.45
2018-02-25T02:03:59.158Z,93894.42
2018-02-25T02:06:25.797Z,93903.41
2018-02-25T02:08:52.376Z,93895.66
2018-02-25T02:11:18.976Z,93902.36
2018-02-25T02:13:45.546Z,93899.07
2018-02-25T02:16:12.089Z,93904.77
2018-02-25T02:18:38.639Z,93900.57
2018-02-25T02:21:05.938Z,93899.75
2018-02-25T02:23:32.540Z,93890.83
2018-02-25T02:25:59.097Z,93894.69
2018-02-25T02:28:25.664Z,93896.97
2018-02-25T02:30:52.231Z,93888.17
2018-02-25T02:33:19.587Z,93887.01
2018-02-25T02:35:46.912Z,93900.27
2018-02-25T02:38:13.482Z,93883.83
2018-02-25T02:40:40.096Z,93873.30
2018-02-25T02:43:06.636Z,93871.53
2018-02-25T02:45:33.263Z,93873.26
2018-02-25T02:47:59.830Z,93879.77
2018-02-25T02:50:26.431Z,93878.00
2018-02-25T02:52:52.994Z,93884.03
2018-02-25T02:55:20.294Z,93887.47
2018-02-25T02:57:46.827Z,93893.95
2018-02-25T03:00:14.333Z,93886.91
2018-02-25T03:02:41.695Z,93899.44
2018-02-25T03:05:08.997Z,93892.37
2018-02-25T03:07:35.568Z,93886.25
2018-02-25T03:10:02.921Z,93900.94
2018-02-25T03:12:30.264Z,93894.72
2018-02-25T03:14:57.574Z,93884.16
2018-02-25T03:17:24.150Z,93882.18
2018-02-25T03:19:51.556Z,93883.53
2018-02-25T03:22:18.139Z,93887.96
2018-02-25T03:24:44.841Z,93880.62
2018-02-25T03:27:11.630Z,93876.39
2018-02-25T03:29:38.212Z,93882.34
2018-02-25T03:32:04.782Z,93886.44
2018-02-25T03:34:31.386Z,93897.50
2018-02-25T03:36:58.890Z,93896.34
2018-02-25T03:39:25.538Z,93894.06
2018-02-25T03:41:52.853Z,93893.63
2018-02-25T03:44:19.410Z,93897.07
2018-02-25T03:46:45.969Z,93904.80
2018-02-25T03:49:12.542Z,93913.19
2018-02-25T03:51:39.094Z,93916.77
2018-02-25T03:54:05.650Z,93912.50
2018-02-25T03:56:32.246Z,93920.48
2018-02-25T03:58:59.534Z,93922.78
2018-02-25T04:01:26.082Z,93923.05
2018-02-25T04:03:52.953Z,93924.02
2018-02-25T04:06:19.483Z,93910.37
2018-02-25T04:08:46.070Z,93907.70
2018-02-25T04:11:12.659Z,93907.19
2018-02-25T04:13:40.770Z,93906.42
2018-02-25T04:16:07.333Z,93914.02
2018-02-25T04:18:33.916Z,93912.20
2018-02-25T04:21:01.203Z,93919.96
2018-02-25T04:23:27.751Z,93920.23
2018-02-25T04:25:54.286Z,93911.89
2018-02-25T04:28:20.821Z,93917.03
2018-02-25T04:30:47.383Z,93917.30
2018-02-25T04:33:14.558Z,93918.50
2018-02-25T04:35:41.869Z,93925.59
2018-02-25T04:38:08.450Z,93918.62
2018-02-25T04:40:36.017Z,93918.78
2018-02-25T04:43:04.248Z,93921.56
2018-02-25T04:45:30.792Z,93916.89
2018-02-25T04:47:57.355Z,93924.84
2018-02-25T04:50:24.665Z,93918.17
2018-02-25T04:52:51.202Z,93920.48
2018-02-25T04:55:17.780Z,93926.73
2018-02-25T04:57:45.104Z,93924.09
2018-02-25T05:00:11.663Z,93925.83
2018-02-25T05:02:38.289Z,93928.34
2018-02-25T05:05:04.830Z,93939.55
2018-02-25T05:20:33.867Z,93929.33
2018-02-25T05:23:00.423Z,93917.70
2018-02-25T05:25:27.014Z,93919.80
2018-02-25T05:27:53.595Z,93923.43
2018-02-25T05:30:20.209Z,93919.80
2018-02-25T05:32:46.742Z,93916.79
2018-02-25T05:35:13.299Z,93924.86
2018-02-25T05:37:39.847Z,93927.77
2018-02-25T05:40:06.766Z,93922.23
2018-02-25T05:42:34.153Z,93932.61
2018-02-25T05:45:01.467Z,93938.99
2018-02-25T05:47:28.274Z,93947.59
2018-02-25T05:49:54.830Z,93946.32
2018-02-25T05:52:21.382Z,93940.77
2018-02-25T05:54:47.964Z,93934.84
2018-02-25T05:57:15.234Z,93940.27
2018-02-25T05:59:42.647Z,93937.15
2018-02-25T06:02:09.966Z,93932.17
2018-02-25T06:04:36.514Z,93928.30
2018-02-25T06:07:03.093Z,93917.92
2018-02-25T06:09:29.641Z,93930.84
2018-02-25T06:11:56.536Z,93934.80
2018-02-25T06:14:24.801Z,93927.69
2018-02-25T06:16:51.350Z,93944.69
2018-02-25T06:19:17.923Z,93934.35
2018-02-25T06:21:44.499Z,93944.63
2018-02-25T06:24:11.799Z,93942.63
2018-02-25T06:26:38.349Z,93951.06
2018-02-25T06:29:04.994Z,93948.78
2018-02-25T06:31:32.303Z,93951.57
2018-02-25T06:33:58.875Z,93937.20
2018-02-25T06:36:25.425Z,93949.69
2018-02-25T06:38:52.765Z,93943.04
2018-02-25T06:41:20.083Z,93947.64
2018-02-25T06:43:46.655Z,93949.47
2018-02-25T06:46:13.202Z,93954.81
2018-02-25T06:48:40.671Z,93956.27
2018-02-25T06:51:07.963Z,93963.31
2018-02-25T06:53:34.514Z,93961.06
2018-02-25T06:56:01.196Z,93967.92
2018-02-25T06:58:27.783Z,93970.11
2018-02-25T07:00:54.339Z,93961.77
2018-02-25T07:03:21.783Z,93966.19
2018-02-25T07:05:48.336Z,93973.77
2018-02-25T07:08:14.978Z,93965.33
2018-02-25T07:10:41.560Z,93973.07
2018-02-25T07:13:08.511Z,93972.09
2018-02-25T07:15:35.071Z,93969.33
2018-02-25T07:18:01.616Z,93972.97
2018-02-25T07:20:28.272Z,93964.64
2018-02-25T07:22:55.554Z,93964.70
2018-02-25T07:25:22.095Z,93974.52
2018-02-25T07:27:48.744Z,93965.91
2018-02-25T07:30:16.003Z,93974.45
2018-02-25T07:32:42.961Z,93974.38
2018-02-25T07:35:09.571Z,93983.67
2018-02-25T07:37:36.877Z,93981.13
2018-02-25T07:40:03.615Z,93988.39
2018-02-25T07:42:30.250Z,93983.22
2018-02-25T07:44:56.795Z,93972.36
2018-02-25T07:47:24.110Z,93984.20
2018-02-25T07:49:50.659Z,93980.52
2018-02-25T07:52:17.513Z,93988.21
2018-02-25T07:54:44.058Z,93979.47
2018-02-25T07:57:10.650Z,93979.84
2018-02-25T07:59:37.283Z,93996.55
2018-02-25T08:02:03.862Z,93988.77
2018-02-25T08:04:30.538Z,93988.14
2018-02-25T08:06:57.119Z,94004.63
2018-02-25T08:09:23.690Z,94007.25
2018-02-25T08:11:51.027Z,94005.34
2018-02-25T08:14:18.873Z,94010.33
2018-02-25T08:16:45.461Z,94005.70
2018-02-25T08:19:12.917Z,94009.56
2018-02-25T08:21:40.351Z,94011.70
2018-02-25T08:24:06.908Z,94010.81
2018-02-25T08:26:35.231Z,94012.08
2018-02-25T08:29:01.792Z,94010.58
2018-02-25T08:31:28.376Z,94014.33
2018-02-25T08:33:54.946Z,94011.94
2018-02-25T08:36:21.491Z,94018.46
2018-02-25T08:38:48.106Z,94008.63
2018-02-25T08:41:14.709Z,94012.96
2018-02-25T08:43:42.078Z,94004.42
2018-02-25T08:46:08.958Z,94003.39
2018-02-25T08:48:35.531Z,94002.59
2018-02-25T08:51:02.868Z,94001.22
2018-02-25T08:53:30.193Z,94000.65
2018-02-25T08:55:57.606Z,93989.81
2018-02-25T08:58:24.211Z,93978.16
2018-02-25T09:00:50.781Z,93990.77
2018-02-25T09:03:17.387Z,93985.82
2018-02-25T09:05:43.999Z,93986.98
2018-02-25T09:08:11.417Z,93985.20
2018-02-25T09:10:38.034Z,93987.67
2018-02-25T09:13:05.472Z,93993.98
2018-02-25T09:15:32.025Z,93980.39
2018-02-25T09:17:59.331Z,93992.16
2018-02-25T09:20:25.924Z,93985.06
2018-02-25T09:22:52.608Z,93983.95
2018-02-25T09:25:19.230Z,93981.11
2018-02-25T09:27:45.835Z,93983.77
2018-02-25T09:30:12.415Z,93996.41
2018-02-25T09:32:38.996Z,93985.11
2018-02-25T09:35:06.419Z,93982.34
2018-02-25T09:37:33.760Z,93990.86
2018-02-25T09:40:00.609Z,93991.83
2018-02-25T09:42:27.274Z,93997.56
2018-02-25T09:44:53.859Z,94000.48
2018-02-25T09:47:20.448Z,93982.66
2018-02-25T09:49:47.766Z,93979.33
2018-02-25T09:52:14.472Z,93973.20
2018-02-25T09:54:41.035Z,93985.22
2018-02-25T09:57:07.638Z,93980.13
2018-02-25T09:59:34.195Z,93972.58
2018-02-25T10:02:00.794Z,93990.88
2018-02-25T10:04:28.176Z,93985.60
2018-02-25T10:06:55.030Z,93989.75
2018-02-25T10:09:21.621Z,93992.41
2018-02-25T10:11:48.971Z,93985.35
2018-02-25T10:14:16.375Z,93991.76
2018-02-25T10:16:43.641Z,93982.86
2018-02-25T10:19:10.208Z,93981.88
2018-02-25T10:21:36.825Z,93976.30
2018-02-25T10:24:03.409Z,93963.66
2018-02-25T10:26:30.738Z,93978.19
2018-02-25T10:28:57.311Z,93977.09
2018-02-25T10:31:23.950Z,93963.52
2018-02-25T10:33:50.508Z,93971.02
2018-02-25T10:36:17.159Z,93965.70
2018-02-25T10:38:43.770Z,93970.43
2018-02-25T10:41:10.340Z,93980.39
2018-02-25T10:43:36.936Z,93973.13
2018-02-25T10:46:03.539Z,93970.20
2018-02-25T10:48:30.096Z,93982.94
2018-02-25T10:50:57.474Z,93976.91
2018-02-25T10:53:24.050Z,93973.31
2018-02-25T10:55:51.406Z,93970.09
2018-02-25T10:58:18.078Z,93980.59
2018-02-25T11:00:50.742Z,94003.19
2018-02-25T11:03:17.312Z,93969.97
2018-02-25T11:05:43.867Z,93962.91
2018-02-25T11:08:10.455Z,93970.29
2018-02-25T11:10:37.775Z,93960.64
2018-02-25T11:13:04.407Z,93969.95
2018-02-25T11:15:31.055Z,93967.73
2018-02-25T11:17:57.616Z,93978.47
2018-02-25T11:20:24.982Z,93967.11
2018-02-25T11:22:52.698Z,93962.36
2018-02-25T11:25:19.371Z,93961.43
2018-02-25T11:27:45.973Z,93963.80
2018-02-25T11:30:12.601Z,93976.29
2018-02-25T11:32:39.517Z,93968.99
2018-02-25T11:35:06.284Z,93972.12
2018-02-25T11:37:32.892Z,93964.44
2018-02-25T11:39:59.463Z,93967.66
2018-02-25T11:42:26.112Z,93967.91
2018-02-25T11:44:52.739Z,93975.09
2018-02-25T11:47:20.055Z,93960.95
2018-02-25T11:49:46.642Z,93965.23
2018-02-25T11:52:13.283Z,93962.92
2018-02-25T11:54:40.658Z,93976.20
2018-02-25T11:57:07.223Z,93955.87
2018-02-25T11:59:34.592Z,93975.17
2018-02-25T12:02:01.183Z,93971.98
2018-02-25T12:04:28.506Z,93972.47
2018-02-25T12:06:55.117Z,93966.35
2018-02-25T12:09:21.764Z,93980.67
2018-02-25T12:11:49.195Z,93964.66
2018-02-25T12:14:15.898Z,93968.19
2018-02-25T12:16:42.475Z,93963.16
2018-02-25T12:19:09.027Z,93966.27
2018-02-25T12:21:35.642Z,93958.63
2018-02-25T12:24:02.318Z,93961.78
2018-02-25T12:26:28.922Z,93962.30
2018-02-25T12:28:55.492Z,93959.25
2018-02-25T12:31:22.117Z,93966.02
2018-02-25T12:33:48.688Z,93957.19
2018-02-25T12:36:15.305Z,93962.11
2018-02-25T12:38:41.879Z,93961.31
2018-02-25T12:41:08.498Z,93952.98
2018-02-25T12:43:35.121Z,93953.62
2018-02-25T12:46:01.790Z,93954.58
2018-02-25T12:48:28.368Z,93945.06
2018-02-25T12:50:55.021Z,93946.42
2018-02-25T12:53:21.720Z,93959.14
2018-02-25T12:55:49.374Z,93949.59
2018-02-25T12:58:16.680Z,93948.63
2018-02-25T13:00:43.261Z,93945.61
2018-02-25T13:03:10.646Z,93954.53
2018-02-25T13:05:37.214Z,93944.61
2018-02-25T13:08:03.816Z,93940.50
2018-02-25T13:10:30.431Z,93936.51
2018-02-25T13:12:57.770Z,93949.95
2018-02-25T13:15:25.346Z,93937.25
2018-02-25T13:17:52.687Z,93933.14
2018-02-25T13:20:19.298Z,93935.70
2018-02-25T13:25:12.453Z,93940.81
2018-02-25T13:27:39.046Z,93933.44
2018-02-25T13:30:06.379Z,93937.59
2018-02-25T13:32:33.031Z,93942.46
2018-02-25T13:35:00.342Z,93936.93
2018-02-25T13:37:26.927Z,93944.52
2018-02-25T13:39:53.822Z,93950.56
2018-02-25T13:42:20.468Z,93950.97
2018-02-25T13:44:47.058Z,93936.16
2018-02-25T13:47:13.678Z,93938.62
2018-02-25T13:49:41.019Z,93933.50
2018-02-25T13:52:07.606Z,93935.00
2018-02-25T13:54:34.179Z,93929.16
2018-02-25T13:57:00.767Z,93927.05
2018-02-25T13:59:27.395Z,93938.67
2018-02-25T14:01:54.015Z,93929.47
2018-02-25T14:04:21.334Z,93939.30
2018-02-25T14:09:14.413Z,93934.47
2018-02-25T14:11:41.751Z,93926.41
2018-02-25T14:14:08.363Z,93929.25
2018-02-25T14:16:34.971Z,93923.48
2018-02-25T14:19:01.571Z,93930.38
2018-02-25T14:21:28.251Z,93917.77
2018-02-25T14:23:55.529Z,93923.94
2018-02-25T14:26:22.113Z,93921.97
2018-02-25T14:28:48.706Z,93911.63
2018-02-25T14:31:15.542Z,93925.67
2018-02-25T14:33:42.167Z,93919.83
2018-02-25T14:36:08.803Z,93927.50
2018-02-25T14:38:35.461Z,93926.45
2018-02-25T14:41:02.055Z,93925.86
2018-02-25T14:43:29.426Z,93929.23
2018-02-25T14:45:56.038Z,93919.00
2018-02-25T14:50:49.296Z,93918.14
2018-02-25T14:53:16.642Z,93919.09
2018-02-25T14:55:43.246Z,93923.02
2018-02-25T14:58:09.854Z,93907.41
2018-02-25T15:00:37.205Z,93914.17
2018-02-25T15:03:03.822Z,93909.74
2018-02-25T15:05:30.438Z,93902.89
2018-02-25T15:07:56.988Z,93915.11
2018-02-25T15:10:23.615Z,93914.28
2018-02-25T15:12:50.213Z,93928.65
2018-02-25T15:15:16.827Z,93906.93
2018-02-25T15:17:44.224Z,93912.14
2018-02-25T15:20:11.264Z,93913.69
2018-02-25T15:22:37.904Z,93915.60
2018-02-25T15:25:04.466Z,93917.58
2018-02-25T15:27:31.124Z,93918.14
2018-02-25T15:29:58.531Z,93915.75
2018-02-25T15:32:25.160Z,93917.39
2018-02-25T15:34:51.771Z,93910.94
2018-02-25T15:37:18.790Z,93930.08
2018-02-25T15:39:45.350Z,93925.55
2018-02-25T15:42:11.974Z,93911.29
2018-02-25T15:44:38.655Z,93908.41
2018-02-25T15:47:05.258Z,93919.00
2018-02-25T15:49:32.151Z,93911.64
2018-02-25T15:51:58.734Z,93914.84
2018-02-25T15:54:25.310Z,93915.21
2018-02-25T15:56:51.932Z,93910.83
2018-02-25T15:59:19.252Z,93911.78
2018-02-25T16:01:45.879Z,93912.28
2018-02-25T16:04:12.548Z,93921.14
2018-02-25T16:06:39.188Z,93921.45
2018-02-25T16:09:06.556Z,93930.41
2018-02-25T16:11:33.181Z,93930.66
2018-02-25T16:14:00.522Z,93928.39
2018-02-25T16:16:27.437Z,93929.73
2018-02-25T16:18:54.127Z,93944.13
2018-02-25T16:21:20.695Z,93926.34
2018-02-25T16:23:47.311Z,93939.66
2018-02-25T16:26:13.987Z,93925.48
2018-02-25T16:28:40.579Z,93930.98
2018-02-25T16:44:01.917Z,93955.32
2018-02-25T16:46:28.796Z,93946.75
2018-02-25T16:48:56.120Z,93950.31
2018-02-25T16:51:23.473Z,93949.98
2018-02-25T16:53:50.060Z,93953.62
2018-02-25T16:56:16.737Z,93964.96
2018-02-25T16:58:43.374Z,93960.76
2018-02-25T17:01:09.985Z,93968.59
2018-02-25T17:03:36.632Z,93986.02
2018-02-25T17:06:03.235Z,93980.58
2018-02-25T17:08:30.594Z,93969.78
2018-02-25T17:10:58.044Z,93972.30
2018-02-25T17:13:24.615Z,93970.04
2018-02-25T17:15:51.263Z,93976.09
2018-02-25T17:18:17.874Z,93977.98
2018-02-25T17:20:44.487Z,93985.21
2018-02-25T17:23:11.901Z,93985.88
2018-02-25T17:25:38.507Z,93991.11
2018-02-25T17:28:05.875Z,93997.35
2018-02-25T17:30:32.658Z,93995.63
2018-02-25T17:33:00.178Z,94001.09
2018-02-25T17:35:26.808Z,93995.92
2018-02-25T17:37:53.482Z,94001.87
2018-02-25T17:40:20.401Z,94003.81
2018-02-25T17:42:47.054Z,94002.46
2018-02-25T17:45:13.684Z,94006.61
2018-02-25T17:47:40.324Z,94006.03
2018-02-25T17:50:07.011Z,94002.64
2018-02-25T17:52:34.373Z,94002.69
2018-02-25T17:55:01.024Z,94015.59
2018-02-25T17:57:28.379Z,94014.84
2018-02-25T17:59:55.094Z,94015.90
2018-02-25T18:02:21.820Z,94018.49
2018-02-25T18:04:48.488Z,94018.63
2018-02-25T18:07:15.108Z,94024.28
2018-02-25T18:09:42.457Z,94015.11
2018-02-25T18:12:09.071Z,94022.55
2018-02-25T18:14:35.659Z,94025.14
2018-02-25T18:17:03.032Z,94025.33
2018-02-25T18:19:29.693Z,94020.50
2018-02-25T18:21:56.337Z,94024.48
2018-02-25T18:24:22.950Z,94019.45
2018-02-25T18:26:49.590Z,94023.88
2018-02-25T18:29:16.216Z,94024.52
2018-02-25T18:31:42.811Z,94031.39
2018-02-25T18:34:09.461Z,94035.19
2018-02-25T18:36:36.166Z,94033.80
2018-02-25T18:39:02.871Z,94036.61
2018-02-25T18:41:29.624Z,94039.38
2018-02-25T18:43:56.530Z,94041.00
2018-02-25T18:46:23.872Z,94038.34
2018-02-25T18:48:50.443Z,94040.28
2018-02-25T18:51:17.386Z,94041.97
2018-02-25T18:53:43.948Z,94039.91
2018-02-25T18:56:10.557Z,94039.83
2018-02-25T18:58:37.918Z,94040.09
2018-02-25T19:01:04.519Z,94038.26
2018-02-25T19:03:31.160Z,94043.20
2018-02-25T19:05:58.519Z,94041.53
2018-02-25T19:08:26.166Z,94046.44
2018-02-25T19:10:52.753Z,94042.12
2018-02-25T19:13:19.365Z,94050.13
2018-02-25T19:15:46.707Z,94047.97
2018-02-25T19:18:14.056Z,94051.27
2018-02-25T19:20:41.417Z,94045.11
2018-02-25T19:23:08.056Z,94038.63
2018-02-25T19:25:35.394Z,94033.42
2018-02-25T19:28:02.806Z,94044.37
2018-02-25T19:30:29.411Z,94039.36
2018-02-25T19:32:56.808Z,94037.31
2018-02-25T19:35:23.438Z,94045.19
2018-02-25T19:37:56.043Z,94034.18
2018-02-25T19:40:28.522Z,94039.61
2018-02-25T19:42:55.488Z,94034.36
2018-02-25T19:45:22.142Z,94035.98
2018-02-25T19:47:50.460Z,94039.84
2018-02-25T19:50:17.095Z,94037.75
2018-02-25T19:52:43.914Z,94040.91
2018-02-25T19:55:10.516Z,94044.88
2018-02-25T19:57:37.912Z,94043.38
2018-02-25T20:00:04.563Z,94038.91
2018-02-25T20:02:31.229Z,94040.47
2018-02-25T20:04:57.850Z,94039.49
2018-02-25T20:07:24.520Z,94035.30
2018-02-25T20:09:51.152Z,94035.38
2018-02-25T20:12:18.095Z,94038.38
2018-02-25T20:14:44.723Z,94045.46
2018-02-25T20:17:12.103Z,94040.92
2018-02-25T20:19:39.463Z,94034.80
2018-02-25T20:22:06.131Z,94040.85
2018-02-25T20:24:33.099Z,94038.17
2018-02-25T20:26:59.734Z,94038.44
2018-02-25T20:29:26.439Z,94033.80
2018-02-25T20:31:53.136Z,94037.10
2018-02-25T20:34:19.747Z,94034.27
2018-02-25T20:36:46.398Z,94031.00
2018-02-25T20:39:13.059Z,94028.53
2018-02-25T20:41:39.695Z,94023.07
2018-02-25T20:44:07.064Z,94025.44
2018-02-25T20:46:34.439Z,94027.88
2018-02-25T20:49:01.248Z,94021.48
2018-02-25T20:51:28.692Z,94019.88
2018-02-25T20:53:56.105Z,94017.16
2018-02-25T20:56:22.787Z,94012.86
2018-02-25T20:58:50.145Z,94014.34
2018-02-25T21:01:17.162Z,94008.11
2018-02-25T21:03:43.710Z,94007.94
2018-02-25T21:06:10.340Z,94000.45
2018-02-25T21:08:37.007Z,94001.92
2018-02-25T21:11:03.617Z,94003.19
2018-02-25T21:13:30.247Z,94002.19
2018-02-25T21:15:56.847Z,93998.52
2018-02-25T21:18:24.224Z,93997.52
2018-02-25T21:20:50.838Z,93995.25
2018-02-25T21:23:17.464Z,93996.92
2018-02-25T21:25:45.066Z,93994.24
2018-02-25T21:28:11.662Z,93996.33
2018-02-25T21:30:38.966Z,93991.60
2018-02-25T21:33:05.600Z,93994.76
2018-02-25T21:35:32.188Z,93994.61
2018-02-25T21:37:59.544Z,94001.83
2018-02-25T21:40:26.914Z,93999.83
2018-02-25T21:42:54.250Z,94003.84
2018-02-25T21:45:21.607Z,94003.66
2018-02-25T21:47:48.946Z,94001.24
2018-02-25T21:50:15.502Z,94003.80
2018-02-25T21:52:44.751Z,94001.78
2018-02-25T21:55:11.357Z,94003.76
2018-02-25T21:57:44.054Z,94001.63
2018-02-25T22:00:12.491Z,94002.17
2018-02-25T22:02:45.902Z,94000.64
2018-02-25T22:05:12.521Z,93991.78
2018-02-25T22:07:39.869Z,93997.16
2018-02-25T22:10:06.470Z,93996.38
2018-02-25T22:12:33.066Z,93993.10
2018-02-25T22:14:59.662Z,93993.01
2018-02-25T22:17:58.004Z,93996.81
2018-02-25T22:20:24.610Z,93994.28
2018-02-25T22:22:51.929Z,93998.08
2018-02-25T22:25:18.966Z,93994.18
2018-02-25T22:27:45.565Z,93988.78
2018-02-25T22:30:12.111Z,93991.89
2018-02-25T22:32:38.794Z,93998.84
2018-02-25T22:35:05.348Z,93990.88
2018-02-25T22:37:31.937Z,93992.30
2018-02-25T22:39:58.478Z,93984.34
2018-02-25T22:42:25.134Z,93980.78
2018-02-25T22:44:51.710Z,93984.25
2018-02-25T22:47:19.042Z,93986.56
2018-02-25T22:49:45.598Z,93984.88
2018-02-25T22:52:12.910Z,93991.63
2018-02-25T22:54:39.478Z,93993.63
2018-02-25T22:57:06.038Z,93992.39
2018-02-25T22:59:32.606Z,93991.22
2018-02-25T23:01:59.221Z,93987.73
2018-02-25T23:04:26.088Z,93994.94
2018-02-25T23:06:52.654Z,93991.30
2018-02-25T23:09:19.194Z,93992.79
2018-02-25T23:11:45.782Z,93995.28
2018-02-25T23:14:12.347Z,93992.56
2018-02-25T23:16:39.659Z,93994.72
2018-02-25T23:19:06.304Z,93988.78
2018-02-25T23:21:32.842Z,93987.41
2018-02-25T23:23:59.496Z,93989.44
2018-02-25T23:26:26.093Z,93993.80
2018-02-25T23:28:53.365Z,93989.73
2018-02-25T23:31:19.985Z,93996.69
2018-02-25T23:33:46.602Z,93992.70
2018-02-25T23:36:13.126Z,93990.50
2018-02-25T23:38:39.787Z,93990.09
2018-02-25T23:41:07.092Z,93985.00
2018-02-25T23:43:33.669Z,93982.47
2018-02-25T23:46:00.946Z,93983.91
2018-02-25T23:48:27.505Z,93984.11
2018-02-25T23:50:54.195Z,93975.86
2018-02-25T23:53:21.548Z,93978.98
2018-02-25T23:55:48.849Z,93979.92
2018-02-25T23:58:15.702Z,93978.98
